createdAt,value
2022-10-23T00:11:42.595Z,14.81
2022-10-23T00:26:50.772Z,14.82
2022-10-23T00:41:56.404Z,14.92
2022-10-23T00:57:05.062Z,14.84
2022-10-23T01:12:16.971Z,14.75
2022-10-23T01:27:25.780Z,14.66
2022-10-23T01:42:38.285Z,14.62
2022-10-23T01:57:45.962Z,14.44
2022-10-23T02:12:58.176Z,14.26
2022-10-23T02:28:07.622Z,14.08
2022-10-23T02:43:17.979Z,14.00
2022-10-23T02:58:29.596Z,13.93
2022-10-23T03:13:35.273Z,13.91
2022-10-23T03:28:40.953Z,13.90
2022-10-23T03:43:46.446Z,13.90
2022-10-23T03:58:51.978Z,13.89
2022-10-23T04:13:57.585Z,13.81
2022-10-23T04:29:03.097Z,13.68
2022-10-23T04:44:09.356Z,13.52
2022-10-23T04:59:14.958Z,13.48
2022-10-23T05:14:22.696Z,13.51
2022-10-23T05:29:28.674Z,13.48
2022-10-23T05:44:34.229Z,13.30
2022-10-23T05:59:39.823Z,13.19
2022-10-23T06:14:45.475Z,13.27
2022-10-23T06:29:51.209Z,13.33
2022-10-23T06:44:56.979Z,13.59
2022-10-23T07:00:02.718Z,14.25
2022-10-23T07:15:10.321Z,14.94
2022-10-23T07:30:17.046Z,15.75
2022-10-23T07:45:22.758Z,16.22
2022-10-23T08:00:28.644Z,17.22
2022-10-23T08:15:34.300Z,18.30
2022-10-23T08:30:40.641Z,17.92
2022-10-23T08:45:49.382Z,17.77
2022-10-23T09:00:55.338Z,17.83
2022-10-23T09:16:08.784Z,17.90
2022-10-23T09:31:14.877Z,18.08
2022-10-23T09:46:20.702Z,18.49
2022-10-23T10:01:28.910Z,18.73
2022-10-23T10:16:47.716Z,19.47
2022-10-23T10:32:05.148Z,19.79
2022-10-23T10:47:21.299Z,20.75
2022-10-23T11:02:29.971Z,20.54
2022-10-23T11:17:41.098Z,21.09
2022-10-23T11:32:59.806Z,20.99
2022-10-23T11:48:07.320Z,20.77
2022-10-23T12:03:24.238Z,20.30
2022-10-23T12:18:30.537Z,20.36
2022-10-23T12:33:42.880Z,20.65
2022-10-23T12:48:52.693Z,21.14
2022-10-23T13:04:02.907Z,20.74
2022-10-23T13:19:10.454Z,21.34
2022-10-23T13:34:25.110Z,21.67
2022-10-23T13:49:31.267Z,21.50
2022-10-23T14:04:37.786Z,21.64
2022-10-23T14:19:50.593Z,21.63
2022-10-23T14:34:59.146Z,20.91
2022-10-23T14:50:05.337Z,20.41
2022-10-23T15:05:11.806Z,19.80
2022-10-23T15:20:17.870Z,19.52
2022-10-23T15:35:24.683Z,19.50
2022-10-23T15:50:30.539Z,19.38
2022-10-23T16:05:37.461Z,19.30
2022-10-23T16:20:44.088Z,19.20
2022-10-23T16:35:49.899Z,19.09
2022-10-23T16:50:55.701Z,18.97
2022-10-23T17:06:06.166Z,18.62
2022-10-23T17:21:15.302Z,18.46
2022-10-23T17:36:22.153Z,23.13
2022-10-23T17:51:30.644Z,23.89
2022-10-23T18:06:38.534Z,23.56
2022-10-23T18:21:44.476Z,22.60
2022-10-23T18:36:51.088Z,22.84
2022-10-23T18:51:58.472Z,22.81
2022-10-23T19:07:04.418Z,22.51
2022-10-23T19:22:11.416Z,22.39
2022-10-23T19:37:17.539Z,22.11
2022-10-23T19:52:23.658Z,21.97
2022-10-23T20:07:29.211Z,21.98
2022-10-23T20:22:34.799Z,21.33
2022-10-23T20:37:40.534Z,20.89
2022-10-23T20:52:46.416Z,20.90
2022-10-23T21:07:52.303Z,20.95
2022-10-23T21:22:58.001Z,20.91
2022-10-23T21:38:03.566Z,21.10
2022-10-23T21:53:09.193Z,21.66
2022-10-23T22:08:15.035Z,21.36
2022-10-23T22:23:20.766Z,21.00
2022-10-23T22:38:26.377Z,20.63
2022-10-23T22:53:32.094Z,20.49
2022-10-23T23:08:39.609Z,20.59
2022-10-23T23:23:45.302Z,20.47
2022-10-23T23:38:51.218Z,20.41
2022-10-23T23:53:57.026Z,20.91
